createdAt,value
2023-05-22T00:00:13.287Z,9.35
2023-05-22T00:03:15.104Z,9.60
2023-05-22T00:06:18.439Z,9.80
2023-05-22T00:09:20.424Z,9.98
2023-05-22T00:12:22.525Z,9.33
2023-05-22T00:15:24.673Z,9.30
2023-05-22T00:18:27.162Z,9.85
2023-05-22T00:21:34.971Z,9.27
2023-05-22T00:24:38.598Z,9.10
2023-05-22T00:27:40.253Z,9.82
2023-05-22T00:30:42.555Z,9.50
2023-05-22T00:33:45.036Z,9.82
2023-05-22T00:36:47.096Z,9.88
2023-05-22T00:39:50.006Z,9.82
2023-05-22T00:42:51.663Z,9.40
2023-05-22T00:45:54.554Z,9.68
2023-05-22T00:48:57.155Z,10.02
2023-05-22T00:52:00.481Z,10.10
2023-05-22T00:55:04.536Z,9.90
2023-05-22T00:58:08.662Z,10.05
2023-05-22T01:01:11.586Z,10.00
2023-05-22T01:04:14.788Z,10.32
2023-05-22T01:07:17.912Z,10.02
2023-05-22T01:10:20.924Z,9.75
2023-05-22T01:13:34.349Z,10.20
2023-05-22T01:17:01.151Z,10.30
2023-05-22T01:20:26.101Z,10.25
2023-05-22T01:24:01.858Z,10.77
2023-05-22T01:27:26.045Z,9.80
2023-05-22T01:30:45.371Z,9.82
2023-05-22T01:33:50.559Z,10.13
2023-05-22T01:36:53.457Z,9.77
2023-05-22T01:39:56.379Z,9.40
2023-05-22T01:42:58.764Z,9.70
2023-05-22T01:46:01.587Z,9.57
2023-05-22T01:49:03.940Z,9.77
2023-05-22T01:52:22.678Z,9.65
2023-05-22T01:55:40.869Z,9.75
2023-05-22T01:58:52.817Z,10.18
2023-05-22T02:01:55.626Z,10.50
2023-05-22T02:05:01.141Z,10.25
2023-05-22T02:08:04.373Z,10.13
2023-05-22T02:11:07.534Z,9.88
2023-05-22T02:14:12.085Z,10.02
2023-05-22T02:17:14.263Z,10.15
2023-05-22T02:20:17.824Z,10.00
2023-05-22T02:23:20.038Z,10.18
2023-05-22T02:26:22.108Z,9.60
2023-05-22T02:29:24.652Z,9.98
2023-05-22T02:32:28.388Z,9.90
2023-05-22T02:35:30.543Z,9.80
2023-05-22T02:38:32.608Z,9.77
2023-05-22T02:41:34.782Z,9.68
2023-05-22T02:44:36.896Z,9.90
2023-05-22T02:47:39.594Z,10.07
2023-05-22T02:50:41.761Z,10.27
2023-05-22T02:53:43.455Z,10.02
2023-05-22T02:56:45.120Z,10.30
2023-05-22T02:59:47.655Z,10.55
2023-05-22T03:02:49.899Z,9.83
2023-05-22T03:05:54.486Z,10.35
2023-05-22T03:08:56.549Z,10.20
2023-05-22T03:11:59.165Z,9.90
2023-05-22T03:15:01.618Z,10.43
2023-05-22T03:18:05.169Z,9.75
2023-05-22T03:21:07.596Z,10.65
2023-05-22T03:24:09.410Z,10.43
2023-05-22T03:27:15.630Z,10.53
2023-05-22T03:30:19.464Z,10.82
2023-05-22T03:33:32.543Z,10.65
2023-05-22T03:36:34.562Z,10.85
2023-05-22T03:39:39.705Z,10.82
2023-05-22T03:42:53.568Z,10.65
2023-05-22T03:45:55.924Z,10.32
2023-05-22T03:48:58.089Z,10.53
2023-05-22T03:52:00.182Z,10.52
2023-05-22T03:55:02.353Z,11.07
2023-05-22T03:58:04.432Z,10.65
2023-05-22T04:01:06.926Z,11.33
2023-05-22T04:04:09.641Z,10.68
2023-05-22T04:07:13.647Z,10.48
2023-05-22T04:10:15.565Z,10.80
2023-05-22T04:13:17.717Z,10.83
2023-05-22T04:16:19.537Z,11.02
2023-05-22T04:19:22.235Z,10.88
2023-05-22T04:22:24.934Z,11.57
2023-05-22T04:25:26.576Z,10.95
2023-05-22T04:28:30.348Z,12.27
2023-05-22T04:31:32.604Z,11.80
2023-05-22T04:34:37.424Z,11.67
2023-05-22T04:37:46.408Z,11.73
2023-05-22T04:40:48.414Z,11.48
2023-05-22T04:43:52.960Z,11.25
2023-05-22T04:46:57.347Z,11.37
2023-05-22T04:50:03.915Z,11.25
2023-05-22T04:53:05.893Z,11.60
2023-05-22T04:56:09.705Z,11.23
2023-05-22T04:59:16.174Z,12.23
2023-05-22T05:02:18.374Z,12.30
2023-05-22T05:05:20.199Z,12.57
2023-05-22T05:08:21.934Z,12.93
2023-05-22T05:11:24.086Z,12.80
2023-05-22T05:14:26.357Z,12.20
2023-05-22T05:17:29.209Z,12.73
2023-05-22T05:20:31.286Z,11.97
2023-05-22T05:23:33.505Z,13.10
2023-05-22T05:26:35.566Z,12.48
2023-05-22T05:29:38.429Z,12.85
2023-05-22T05:32:47.674Z,12.48
2023-05-22T05:36:12.224Z,12.63
2023-05-22T05:39:15.194Z,12.07
2023-05-22T05:42:20.475Z,12.63
2023-05-22T05:45:24.032Z,12.60
2023-05-22T05:48:27.495Z,12.85
2023-05-22T05:51:30.061Z,12.55
2023-05-22T05:54:32.728Z,12.70
2023-05-22T05:57:40.571Z,13.32
2023-05-22T06:00:46.362Z,14.00
2023-05-22T06:03:50.327Z,13.80
2023-05-22T06:06:58.879Z,13.53
2023-05-22T06:10:10.858Z,13.55
2023-05-22T06:13:19.082Z,13.57
2023-05-22T06:16:20.751Z,12.98
2023-05-22T06:19:22.911Z,13.57
2023-05-22T06:22:29.166Z,12.88
2023-05-22T06:25:31.125Z,12.65
2023-05-22T06:28:33.984Z,11.73
2023-05-22T06:31:38.606Z,12.13
2023-05-22T06:34:44.350Z,11.85
2023-05-22T06:37:47.234Z,11.10
2023-05-22T06:40:49.534Z,11.30
2023-05-22T06:43:54.886Z,11.38
2023-05-22T06:47:03.109Z,11.23
2023-05-22T06:50:06.952Z,11.30
2023-05-22T06:53:09.614Z,11.30
2023-05-22T06:56:11.373Z,11.55
2023-05-22T06:59:24.295Z,10.98
2023-05-22T07:02:41.892Z,11.50
2023-05-22T07:05:59.929Z,11.35
2023-05-22T07:09:02.971Z,11.23
2023-05-22T07:12:07.795Z,11.52
2023-05-22T07:15:12.249Z,11.83
2023-05-22T07:18:15.248Z,12.48
2023-05-22T07:21:18.521Z,11.90
2023-05-22T07:24:20.633Z,12.38
2023-05-22T07:27:25.318Z,12.10
2023-05-22T07:30:29.678Z,11.60
2023-05-22T07:33:31.373Z,12.48
2023-05-22T07:36:34.808Z,11.80
2023-05-22T07:39:37.735Z,12.07
2023-05-22T07:42:40.691Z,12.05
2023-05-22T07:45:47.152Z,12.30
2023-05-22T07:48:51.565Z,12.15
2023-05-22T07:51:53.485Z,12.65
2023-05-22T07:54:58.697Z,12.70
2023-05-22T07:58:04.174Z,12.23
2023-05-22T08:01:11.196Z,12.83
2023-05-22T08:04:13.100Z,12.23
2023-05-22T08:07:15.185Z,12.27
2023-05-22T08:10:18.657Z,12.40
2023-05-22T08:13:20.831Z,13.48
2023-05-22T08:16:23.590Z,13.43
2023-05-22T08:19:25.962Z,12.90
2023-05-22T08:22:30.100Z,12.95
2023-05-22T08:25:31.749Z,13.18
2023-05-22T08:28:33.816Z,13.57
2023-05-22T08:31:35.907Z,13.00
2023-05-22T08:34:40.451Z,13.65
2023-05-22T08:37:42.162Z,13.40
2023-05-22T08:40:47.950Z,12.70
2023-05-22T08:43:49.797Z,12.73
2023-05-22T08:46:52.463Z,11.97
2023-05-22T08:49:54.954Z,12.30
2023-05-22T08:53:02.029Z,12.38
2023-05-22T08:56:06.938Z,12.77
2023-05-22T08:59:09.164Z,12.27
2023-05-22T09:02:13.549Z,12.20
2023-05-22T09:05:17.683Z,11.98
2023-05-22T09:08:21.228Z,11.63
2023-05-22T09:11:24.696Z,11.95
2023-05-22T09:14:26.796Z,11.10
2023-05-22T09:17:28.969Z,11.33
2023-05-22T09:20:35.573Z,11.43
2023-05-22T09:23:37.948Z,11.27
2023-05-22T09:26:41.061Z,11.82
2023-05-22T09:29:57.779Z,11.50
2023-05-22T09:32:59.487Z,11.77
2023-05-22T09:36:01.612Z,12.05
2023-05-22T09:39:04.786Z,11.93
2023-05-22T09:42:08.830Z,11.30
2023-05-22T09:45:11.308Z,11.50
2023-05-22T09:48:17.586Z,11.50
2023-05-22T09:51:29.921Z,11.77
2023-05-22T09:54:34.468Z,11.57
2023-05-22T09:57:44.255Z,10.63
2023-05-22T10:00:48.525Z,11.10
2023-05-22T10:03:54.377Z,11.13
2023-05-22T10:06:57.930Z,11.50
2023-05-22T10:10:09.144Z,11.18
2023-05-22T10:13:11.310Z,11.63
2023-05-22T10:16:17.329Z,12.07
2023-05-22T10:19:20.054Z,11.67
2023-05-22T10:22:23.364Z,11.00
2023-05-22T10:25:26.542Z,11.65
2023-05-22T10:28:36.596Z,11.25
2023-05-22T10:31:48.395Z,10.77
2023-05-22T10:35:34.308Z,11.23
2023-05-22T10:38:45.207Z,11.47
2023-05-22T10:41:47.750Z,10.98
2023-05-22T10:44:50.083Z,11.07
2023-05-22T10:48:14.825Z,11.95
2023-05-22T10:51:21.951Z,11.63
2023-05-22T10:54:54.429Z,11.75
2023-05-22T10:57:56.973Z,12.02
2023-05-22T11:01:11.436Z,12.15
2023-05-22T11:04:14.557Z,11.48
2023-05-22T11:07:22.105Z,12.33
2023-05-22T11:10:27.907Z,12.43
2023-05-22T11:13:29.726Z,12.32
2023-05-22T11:16:34.632Z,11.15
2023-05-22T11:19:36.387Z,12.40
2023-05-22T11:22:41.226Z,11.70
2023-05-22T11:25:43.053Z,11.10
2023-05-22T11:28:51.655Z,11.85
2023-05-22T11:31:53.448Z,11.65
2023-05-22T11:34:58.482Z,12.10
2023-05-22T11:38:04.876Z,11.43
2023-05-22T11:41:09.275Z,11.57
2023-05-22T11:44:11.337Z,12.13
2023-05-22T11:47:13.805Z,11.65
2023-05-22T11:50:22.764Z,11.07
2023-05-22T11:53:33.216Z,11.63
2023-05-22T11:56:35.271Z,10.93
2023-05-22T11:59:37.359Z,11.48
2023-05-22T12:02:44.747Z,11.60
2023-05-22T12:05:47.507Z,11.43
2023-05-22T12:08:49.418Z,12.00
2023-05-22T12:11:51.588Z,11.10
2023-05-22T12:14:53.265Z,12.23
2023-05-22T12:17:56.505Z,11.73
2023-05-22T12:20:58.719Z,11.93
2023-05-22T12:24:06.792Z,11.13
2023-05-22T12:27:10.343Z,11.17
2023-05-22T12:30:16.920Z,10.90
2023-05-22T12:33:19.851Z,9.80
2023-05-22T12:36:32.184Z,10.25
2023-05-22T12:39:34.636Z,10.57
2023-05-22T12:42:36.887Z,10.50
2023-05-22T12:45:41.289Z,9.20
2023-05-22T12:48:43.424Z,10.30
2023-05-22T12:51:45.730Z,10.45
2023-05-22T12:54:48.456Z,10.30
2023-05-22T12:57:50.577Z,9.63
2023-05-22T13:00:52.338Z,9.93
2023-05-22T13:03:54.159Z,9.40
2023-05-22T13:06:56.478Z,9.43
2023-05-22T13:09:58.495Z,9.27
2023-05-22T13:13:00.480Z,9.07
2023-05-22T13:16:02.727Z,8.90
2023-05-22T13:19:04.966Z,8.82
2023-05-22T13:22:07.692Z,9.07
2023-05-22T13:25:10.375Z,8.87
2023-05-22T13:28:11.975Z,8.10
2023-05-22T13:31:14.220Z,8.88
2023-05-22T13:34:16.355Z,7.97
2023-05-22T13:37:18.883Z,7.68
2023-05-22T13:40:25.506Z,8.00
2023-05-22T13:43:27.222Z,7.57
2023-05-22T13:46:29.320Z,7.95
2023-05-22T13:49:30.972Z,7.68
2023-05-22T13:52:33.014Z,7.50
2023-05-22T13:55:35.398Z,7.30
2023-05-22T13:58:37.442Z,6.70
2023-05-22T14:01:39.522Z,6.63
2023-05-22T14:04:42.184Z,6.72
2023-05-22T14:07:43.892Z,6.40
2023-05-22T14:10:47.125Z,6.50
2023-05-22T14:13:49.988Z,6.53
2023-05-22T14:16:52.346Z,5.90
2023-05-22T14:19:55.535Z,6.00
2023-05-22T14:22:58.524Z,5.72
2023-05-22T14:26:00.786Z,6.20
2023-05-22T14:29:03.326Z,5.97
2023-05-22T14:32:05.618Z,5.88
2023-05-22T14:35:08.077Z,5.97
2023-05-22T14:38:09.759Z,5.72
2023-05-22T14:41:11.828Z,5.40
2023-05-22T14:44:13.966Z,6.70
2023-05-22T14:47:15.639Z,7.20
2023-05-22T14:50:20.361Z,9.55
2023-05-22T14:53:23.345Z,5.18
2023-05-22T14:56:25.475Z,5.40
2023-05-22T14:59:28.240Z,4.90
2023-05-22T15:02:30.328Z,5.15
2023-05-22T15:05:32.805Z,6.00
2023-05-22T15:08:36.976Z,5.65
2023-05-22T15:11:39.060Z,5.63
2023-05-22T15:14:40.640Z,5.60
2023-05-22T15:17:43.264Z,5.72
2023-05-22T15:20:46.120Z,5.88
2023-05-22T15:23:48.040Z,6.15
2023-05-22T15:26:49.762Z,6.30
2023-05-22T15:29:52.617Z,5.97
2023-05-22T15:32:54.362Z,5.57
2023-05-22T15:35:57.421Z,5.47
2023-05-22T15:38:59.491Z,5.10
2023-05-22T15:42:06.322Z,5.20
2023-05-22T15:45:09.324Z,5.90
2023-05-22T15:48:12.481Z,5.80
2023-05-22T15:51:14.771Z,5.10
2023-05-22T15:54:16.870Z,5.07
2023-05-22T15:57:18.735Z,5.40
2023-05-22T16:00:21.572Z,6.30
2023-05-22T16:03:23.869Z,11.73
2023-05-22T16:06:27.410Z,6.72
2023-05-22T16:09:31.399Z,5.60
2023-05-22T16:12:35.397Z,5.30
2023-05-22T16:15:40.645Z,5.80
2023-05-22T16:18:43.149Z,5.50
2023-05-22T16:21:45.942Z,5.30
2023-05-22T16:24:47.703Z,5.30
2023-05-22T16:27:49.798Z,5.57
2023-05-22T16:30:51.437Z,5.57
2023-05-22T16:33:53.237Z,5.30
2023-05-22T16:36:55.381Z,5.15
2023-05-22T16:39:57.477Z,5.57
2023-05-22T16:42:59.582Z,5.50
2023-05-22T16:46:01.255Z,5.73
2023-05-22T16:49:03.383Z,5.80
2023-05-22T16:52:06.013Z,6.00
2023-05-22T16:55:08.790Z,6.40
2023-05-22T16:58:12.838Z,6.17
2023-05-22T17:01:16.192Z,6.00
2023-05-22T17:04:20.728Z,6.13
2023-05-22T17:07:23.537Z,6.60
2023-05-22T17:10:25.797Z,6.22
2023-05-22T17:13:27.993Z,6.77
2023-05-22T17:16:30.868Z,7.10
2023-05-22T17:19:33.132Z,6.65
2023-05-22T17:22:36.617Z,7.93
2023-05-22T17:25:38.765Z,6.97
2023-05-22T17:28:40.648Z,7.43
2023-05-22T17:31:43.383Z,7.13
2023-05-22T17:34:45.709Z,7.13
2023-05-22T17:37:47.746Z,7.20
2023-05-22T17:40:50.124Z,7.40
2023-05-22T17:43:52.119Z,7.07
2023-05-22T17:46:54.153Z,8.10
2023-05-22T17:49:55.870Z,7.57
2023-05-22T17:52:58.035Z,7.60
2023-05-22T17:56:00.017Z,7.93
2023-05-22T17:59:02.273Z,8.10
2023-05-22T18:02:04.572Z,8.27
2023-05-22T18:05:07.313Z,8.23
2023-05-22T18:08:08.993Z,7.80
2023-05-22T18:11:11.037Z,7.65
2023-05-22T18:14:12.744Z,8.60
2023-05-22T18:17:15.798Z,8.10
2023-05-22T18:20:17.560Z,7.90
2023-05-22T18:23:20.870Z,8.45
2023-05-22T18:26:22.637Z,8.40
2023-05-22T18:29:24.753Z,8.20
2023-05-22T18:32:26.401Z,7.73
2023-05-22T18:35:28.008Z,8.23
2023-05-22T18:38:30.033Z,8.30
2023-05-22T18:41:32.061Z,7.78
2023-05-22T18:44:34.159Z,8.50
2023-05-22T18:47:36.313Z,8.23
2023-05-22T18:50:37.978Z,8.00
2023-05-22T18:53:39.611Z,8.25
2023-05-22T18:56:41.587Z,8.57
2023-05-22T18:59:46.074Z,8.63
2023-05-22T19:02:47.805Z,8.40
2023-05-22T19:05:49.585Z,8.43
2023-05-22T19:08:51.387Z,8.57
2023-05-22T19:11:53.886Z,8.75
2023-05-22T19:14:55.513Z,8.87
2023-05-22T19:17:57.857Z,8.65
2023-05-22T19:20:59.977Z,8.68
2023-05-22T19:24:01.790Z,9.10
2023-05-22T19:27:03.495Z,9.43
2023-05-22T19:30:07.249Z,10.10
2023-05-22T19:33:10.675Z,9.83
2023-05-22T19:36:13.152Z,9.05
2023-05-22T19:39:14.860Z,8.00
2023-05-22T19:42:17.313Z,8.10
2023-05-22T19:45:19.680Z,8.13
2023-05-22T19:48:22.218Z,7.45
2023-05-22T19:51:23.995Z,7.85
2023-05-22T19:54:26.016Z,7.82
2023-05-22T19:57:27.659Z,7.70
2023-05-22T20:00:31.753Z,7.50
2023-05-22T20:03:33.914Z,8.02
2023-05-22T20:06:35.762Z,7.68
2023-05-22T20:09:37.853Z,8.02
2023-05-22T20:12:39.994Z,7.82
2023-05-22T20:15:41.898Z,8.00
2023-05-22T20:18:45.335Z,8.50
2023-05-22T20:21:49.763Z,8.43
2023-05-22T20:24:52.554Z,8.52
2023-05-22T20:27:54.772Z,8.55
2023-05-22T20:30:57.222Z,8.40
2023-05-22T20:33:59.147Z,8.57
2023-05-22T20:37:02.445Z,8.70
2023-05-22T20:40:05.858Z,8.63
2023-05-22T20:43:08.961Z,8.95
2023-05-22T20:46:10.706Z,8.47
2023-05-22T20:49:13.543Z,8.18
2023-05-22T20:52:16.053Z,8.73
2023-05-22T20:55:17.744Z,8.32
2023-05-22T20:58:20.210Z,8.27
2023-05-22T21:01:22.905Z,9.50
2023-05-22T21:04:26.212Z,9.30
2023-05-22T21:07:28.393Z,9.15
2023-05-22T21:10:30.474Z,8.98
2023-05-22T21:13:32.699Z,9.00
2023-05-22T21:16:36.382Z,9.13
2023-05-22T21:19:40.576Z,8.82
2023-05-22T21:22:42.177Z,8.98
2023-05-22T21:25:44.997Z,8.93
2023-05-22T21:28:47.039Z,8.63
2023-05-22T21:31:49.181Z,9.33
2023-05-22T21:34:50.874Z,9.13
2023-05-22T21:37:54.468Z,9.32
2023-05-22T21:40:56.537Z,9.15
2023-05-22T21:43:59.596Z,8.43
2023-05-22T21:47:01.385Z,8.20
2023-05-22T21:50:06.784Z,8.05
2023-05-22T21:53:08.854Z,7.88
2023-05-22T21:56:10.509Z,8.38
2023-05-22T21:59:13.057Z,8.38
2023-05-22T22:02:15.015Z,7.87
2023-05-22T22:05:18.821Z,7.90
2023-05-22T22:08:20.496Z,8.07
2023-05-22T22:11:22.981Z,7.88
2023-05-22T22:14:25.138Z,7.22
2023-05-22T22:17:26.899Z,7.77
2023-05-22T22:20:44.384Z,7.80
2023-05-22T22:23:47.284Z,7.70
2023-05-22T22:26:49.364Z,7.93
2023-05-22T22:29:51.465Z,8.32
2023-05-22T22:32:53.711Z,8.03
2023-05-22T22:35:56.346Z,7.65
2023-05-22T22:38:59.753Z,7.43
2023-05-22T22:42:05.096Z,7.78
2023-05-22T22:45:07.146Z,7.43
2023-05-22T22:48:08.792Z,7.87
2023-05-22T22:51:11.729Z,7.63
2023-05-22T22:54:15.225Z,8.35
2023-05-22T22:57:17.388Z,8.13
2023-05-22T23:00:20.159Z,8.13
2023-05-22T23:03:22.327Z,8.20
2023-05-22T23:06:24.198Z,8.00
2023-05-22T23:09:26.059Z,8.05
2023-05-22T23:12:28.207Z,8.07
2023-05-22T23:15:30.591Z,8.30
2023-05-22T23:18:32.245Z,8.30
2023-05-22T23:21:35.141Z,8.13
2023-05-22T23:24:37.221Z,8.48
2023-05-22T23:27:39.396Z,8.05
2023-05-22T23:30:41.672Z,8.10
2023-05-22T23:33:43.743Z,8.37
2023-05-22T23:36:45.953Z,8.30
2023-05-22T23:39:47.867Z,8.18
2023-05-22T23:42:49.646Z,8.30
2023-05-22T23:45:51.686Z,8.23
2023-05-22T23:48:53.841Z,7.60
2023-05-22T23:51:55.883Z,8.02
2023-05-22T23:54:58.372Z,8.27
2023-05-22T23:57:59.948Z,7.90
